sensor_id;sensor_type;location;lat;lon;timestamp;P1;durP1;ratioP1;P2;durP2;ratioP2
60704;SDS011;46545;38.014;-7.874;2023-04-15T00:01:02;5.85;;;2.72;;
60704;SDS011;46545;38.014;-7.874;2023-04-15T00:03:03;7.18;;;2.72;;
60704;SDS011;46545;38.014;-7.874;2023-04-15T00:07:07;8.40;;;2.63;;
60704;SDS011;46545;38.014;-7.874;2023-04-15T00:09:08;6.70;;;2.28;;
60704;SDS011;46545;38.014;-7.874;2023-04-15T00:11:08;4.47;;;2.58;;
60704;SDS011;46545;38.014;-7.874;2023-04-15T00:13:09;4.95;;;2.00;;
60704;SDS011;46545;38.014;-7.874;2023-04-15T00:15:09;2.67;;;1.60;;
60704;SDS011;46545;38.014;-7.874;2023-04-15T00:17:11;5.88;;;2.22;;
60704;SDS011;46545;38.014;-7.874;2023-04-15T00:19:12;9.32;;;2.60;;
60704;SDS011;46545;38.014;-7.874;2023-04-15T00:21:12;4.18;;;2.33;;
60704;SDS011;46545;38.014;-7.874;2023-04-15T00:23:13;10.15;;;2.55;;
60704;SDS011;46545;38.014;-7.874;2023-04-15T00:25:13;4.68;;;2.00;;
60704;SDS011;46545;38.014;-7.874;2023-04-15T00:27:14;5.00;;;1.75;;
60704;SDS011;46545;38.014;-7.874;2023-04-15T00:29:15;9.88;;;1.60;;
60704;SDS011;46545;38.014;-7.874;2023-04-15T00:31:15;5.35;;;1.60;;
60704;SDS011;46545;38.014;-7.874;2023-04-15T00:33:16;10.32;;;1.80;;
60704;SDS011;46545;38.014;-7.874;2023-04-15T00:35:16;8.98;;;2.38;;
60704;SDS011;46545;38.014;-7.874;2023-04-15T00:37:17;7.03;;;2.33;;
60704;SDS011;46545;38.014;-7.874;2023-04-15T00:39:17;9.52;;;2.38;;
60704;SDS011;46545;38.014;-7.874;2023-04-15T00:41:18;11.23;;;2.90;;
60704;SDS011;46545;38.014;-7.874;2023-04-15T00:43:19;7.15;;;2.35;;
60704;SDS011;46545;38.014;-7.874;2023-04-15T00:45:20;9.25;;;2.58;;
60704;SDS011;46545;38.014;-7.874;2023-04-15T00:47:20;8.88;;;2.60;;
60704;SDS011;46545;38.014;-7.874;2023-04-15T00:49:21;8.13;;;2.42;;
60704;SDS011;46545;38.014;-7.874;2023-04-15T00:51:22;9.07;;;1.92;;
60704;SDS011;46545;38.014;-7.874;2023-04-15T00:53:24;11.70;;;3.40;;
60704;SDS011;46545;38.014;-7.874;2023-04-15T00:55:24;8.40;;;2.47;;
60704;SDS011;46545;38.014;-7.874;2023-04-15T00:57:25;5.90;;;1.60;;
60704;SDS011;46545;38.014;-7.874;2023-04-15T00:59:26;10.85;;;2.65;;
60704;SDS011;46545;38.014;-7.874;2023-04-15T01:01:27;8.15;;;2.80;;
60704;SDS011;46545;38.014;-7.874;2023-04-15T01:03:28;11.43;;;2.22;;
60704;SDS011;46545;38.014;-7.874;2023-04-15T01:05:29;9.27;;;2.40;;
60704;SDS011;46545;38.014;-7.874;2023-04-15T01:07:30;5.25;;;1.77;;
60704;SDS011;46545;38.014;-7.874;2023-04-15T01:09:31;6.75;;;2.17;;
60704;SDS011;46545;38.014;-7.874;2023-04-15T01:11:32;9.55;;;1.88;;
60704;SDS011;46545;38.014;-7.874;2023-04-15T01:13:34;8.55;;;2.80;;
60704;SDS011;46545;38.014;-7.874;2023-04-15T01:15:35;6.47;;;2.20;;
60704;SDS011;46545;38.014;-7.874;2023-04-15T01:17:36;2.78;;;1.98;;
60704;SDS011;46545;38.014;-7.874;2023-04-15T01:19:40;5.18;;;2.30;;
60704;SDS011;46545;38.014;-7.874;2023-04-15T01:21:41;10.30;;;2.95;;
60704;SDS011;46545;38.014;-7.874;2023-04-15T01:23:42;7.28;;;2.72;;
60704;SDS011;46545;38.014;-7.874;2023-04-15T01:25:44;9.07;;;3.05;;
60704;SDS011;46545;38.014;-7.874;2023-04-15T01:27:46;12.07;;;2.42;;
60704;SDS011;46545;38.014;-7.874;2023-04-15T01:29:46;9.00;;;4.53;;
60704;SDS011;46545;38.014;-7.874;2023-04-15T01:31:50;9.15;;;2.70;;
60704;SDS011;46545;38.014;-7.874;2023-04-15T01:33:52;7.82;;;2.72;;
60704;SDS011;46545;38.014;-7.874;2023-04-15T01:35:52;4.95;;;2.05;;
60704;SDS011;46545;38.014;-7.874;2023-04-15T01:37:53;8.77;;;2.33;;
60704;SDS011;46545;38.014;-7.874;2023-04-15T01:39:54;10.98;;;2.50;;
60704;SDS011;46545;38.014;-7.874;2023-04-15T01:41:56;12.57;;;3.00;;
60704;SDS011;46545;38.014;-7.874;2023-04-15T01:43:57;14.52;;;3.35;;
60704;SDS011;46545;38.014;-7.874;2023-04-15T01:45:58;8.55;;;2.63;;
60704;SDS011;46545;38.014;-7.874;2023-04-15T01:48:00;5.03;;;2.33;;
60704;SDS011;46545;38.014;-7.874;2023-04-15T01:50:00;6.13;;;2.90;;
60704;SDS011;46545;38.014;-7.874;2023-04-15T01:52:02;8.77;;;1.98;;
60704;SDS011;46545;38.014;-7.874;2023-04-15T01:54:02;8.43;;;2.55;;
60704;SDS011;46545;38.014;-7.874;2023-04-15T01:56:03;8.93;;;2.78;;
60704;SDS011;46545;38.014;-7.874;2023-04-15T01:58:04;7.75;;;3.03;;
60704;SDS011;46545;38.014;-7.874;2023-04-15T02:00:05;9.60;;;2.75;;
60704;SDS011;46545;38.014;-7.874;2023-04-15T02:02:15;8.13;;;3.15;;
60704;SDS011;46545;38.014;-7.874;2023-04-15T02:04:16;8.38;;;2.70;;
60704;SDS011;46545;38.014;-7.874;2023-04-15T02:06:17;8.27;;;3.75;;
60704;SDS011;46545;38.014;-7.874;2023-04-15T02:08:17;9.60;;;2.53;;
60704;SDS011;46545;38.014;-7.874;2023-04-15T02:10:18;6.45;;;2.45;;
60704;SDS011;46545;38.014;-7.874;2023-04-15T02:12:18;6.40;;;2.38;;
60704;SDS011;46545;38.014;-7.874;2023-04-15T02:14:19;11.00;;;2.47;;
60704;SDS011;46545;38.014;-7.874;2023-04-15T02:16:20;9.25;;;2.40;;
60704;SDS011;46545;38.014;-7.874;2023-04-15T02:18:20;9.23;;;2.80;;
60704;SDS011;46545;38.014;-7.874;2023-04-15T02:20:21;8.25;;;2.95;;
60704;SDS011;46545;38.014;-7.874;2023-04-15T02:22:22;14.80;;;4.05;;
60704;SDS011;46545;38.014;-7.874;2023-04-15T02:24:22;8.77;;;2.28;;
60704;SDS011;46545;38.014;-7.874;2023-04-15T02:26:23;6.72;;;2.38;;
60704;SDS011;46545;38.014;-7.874;2023-04-15T02:28:24;7.07;;;2.50;;
60704;SDS011;46545;38.014;-7.874;2023-04-15T02:30:24;12.10;;;2.72;;
60704;SDS011;46545;38.014;-7.874;2023-04-15T02:32:26;14.43;;;4.60;;
60704;SDS011;46545;38.014;-7.874;2023-04-15T02:34:28;5.65;;;2.83;;
60704;SDS011;46545;38.014;-7.874;2023-04-15T02:36:31;6.97;;;2.45;;
60704;SDS011;46545;38.014;-7.874;2023-04-15T02:38:32;7.00;;;2.70;;
60704;SDS011;46545;38.014;-7.874;2023-04-15T02:40:32;8.50;;;2.50;;
60704;SDS011;46545;38.014;-7.874;2023-04-15T02:42:33;6.20;;;2.53;;
60704;SDS011;46545;38.014;-7.874;2023-04-15T02:44:34;2.63;;;1.90;;
60704;SDS011;46545;38.014;-7.874;2023-04-15T02:46:37;8.05;;;2.08;;
60704;SDS011;46545;38.014;-7.874;2023-04-15T02:48:38;3.90;;;2.10;;
60704;SDS011;46545;38.014;-7.874;2023-04-15T02:50:39;6.93;;;2.38;;
60704;SDS011;46545;38.014;-7.874;2023-04-15T02:52:40;9.18;;;2.40;;
60704;SDS011;46545;38.014;-7.874;2023-04-15T02:54:41;8.75;;;2.22;;
60704;SDS011;46545;38.014;-7.874;2023-04-15T02:56:41;9.23;;;2.55;;
60704;SDS011;46545;38.014;-7.874;2023-04-15T02:58:42;3.83;;;1.90;;
60704;SDS011;46545;38.014;-7.874;2023-04-15T03:00:43;7.47;;;2.55;;
60704;SDS011;46545;38.014;-7.874;2023-04-15T03:02:45;11.05;;;2.67;;
60704;SDS011;46545;38.014;-7.874;2023-04-15T03:04:45;4.30;;;2.30;;
60704;SDS011;46545;38.014;-7.874;2023-04-15T03:06:46;6.32;;;2.83;;
60704;SDS011;46545;38.014;-7.874;2023-04-15T03:08:47;8.27;;;3.13;;
60704;SDS011;46545;38.014;-7.874;2023-04-15T03:10:47;11.32;;;3.40;;
60704;SDS011;46545;38.014;-7.874;2023-04-15T03:12:48;7.65;;;3.22;;
60704;SDS011;46545;38.014;-7.874;2023-04-15T03:14:54;7.40;;;2.78;;
60704;SDS011;46545;38.014;-7.874;2023-04-15T03:17:00;7.47;;;2.50;;
60704;SDS011;46545;38.014;-7.874;2023-04-15T03:19:02;8.07;;;2.92;;
60704;SDS011;46545;38.014;-7.874;2023-04-15T03:21:03;5.15;;;2.60;;
60704;SDS011;46545;38.014;-7.874;2023-04-15T03:23:07;12.27;;;3.30;;
60704;SDS011;46545;38.014;-7.874;2023-04-15T03:25:07;6.82;;;2.88;;
60704;SDS011;46545;38.014;-7.874;2023-04-15T03:27:08;9.10;;;2.92;;
60704;SDS011;46545;38.014;-7.874;2023-04-15T03:29:09;7.03;;;3.00;;
60704;SDS011;46545;38.014;-7.874;2023-04-15T03:31:10;11.57;;;3.00;;
60704;SDS011;46545;38.014;-7.874;2023-04-15T03:33:10;6.85;;;2.60;;
60704;SDS011;46545;38.014;-7.874;2023-04-15T03:35:11;13.90;;;4.15;;
60704;SDS011;46545;38.014;-7.874;2023-04-15T03:37:12;7.35;;;2.05;;
60704;SDS011;46545;38.014;-7.874;2023-04-15T03:39:12;8.18;;;2.70;;
60704;SDS011;46545;38.014;-7.874;2023-04-15T03:41:13;7.60;;;2.45;;
60704;SDS011;46545;38.014;-7.874;2023-04-15T03:43:13;8.32;;;2.22;;
60704;SDS011;46545;38.014;-7.874;2023-04-15T03:45:14;13.00;;;2.38;;
60704;SDS011;46545;38.014;-7.874;2023-04-15T03:47:14;9.30;;;2.20;;
60704;SDS011;46545;38.014;-7.874;2023-04-15T03:49:15;7.43;;;2.55;;
60704;SDS011;46545;38.014;-7.874;2023-04-15T03:51:16;7.53;;;1.77;;
60704;SDS011;46545;38.014;-7.874;2023-04-15T03:53:16;8.60;;;2.38;;
60704;SDS011;46545;38.014;-7.874;2023-04-15T03:55:16;4.60;;;2.35;;
60704;SDS011;46545;38.014;-7.874;2023-04-15T03:57:17;10.27;;;2.88;;
60704;SDS011;46545;38.014;-7.874;2023-04-15T03:59:17;9.63;;;2.50;;
60704;SDS011;46545;38.014;-7.874;2023-04-15T04:01:18;9.95;;;2.90;;
60704;SDS011;46545;38.014;-7.874;2023-04-15T04:03:18;6.72;;;1.85;;
60704;SDS011;46545;38.014;-7.874;2023-04-15T04:05:19;4.75;;;2.45;;
60704;SDS011;46545;38.014;-7.874;2023-04-15T04:07:19;6.72;;;2.35;;
60704;SDS011;46545;38.014;-7.874;2023-04-15T04:09:19;3.80;;;1.60;;
60704;SDS011;46545;38.014;-7.874;2023-04-15T04:11:20;2.63;;;1.77;;
60704;SDS011;46545;38.014;-7.874;2023-04-15T04:13:21;4.55;;;1.48;;
60704;SDS011;46545;38.014;-7.874;2023-04-15T04:15:21;4.43;;;1.70;;
60704;SDS011;46545;38.014;-7.874;2023-04-15T04:17:22;4.75;;;1.40;;
60704;SDS011;46545;38.014;-7.874;2023-04-15T04:19:22;6.38;;;1.63;;
60704;SDS011;46545;38.014;-7.874;2023-04-15T04:21:23;3.97;;;1.40;;
60704;SDS011;46545;38.014;-7.874;2023-04-15T04:23:23;6.82;;;2.00;;
60704;SDS011;46545;38.014;-7.874;2023-04-15T04:25:23;3.38;;;1.05;;
60704;SDS011;46545;38.014;-7.874;2023-04-15T04:27:24;2.97;;;1.08;;
60704;SDS011;46545;38.014;-7.874;2023-04-15T04:29:25;6.88;;;1.27;;
60704;SDS011;46545;38.014;-7.874;2023-04-15T04:31:26;7.38;;;1.00;;
60704;SDS011;46545;38.014;-7.874;2023-04-15T04:33:26;1.83;;;1.05;;
60704;SDS011;46545;38.014;-7.874;2023-04-15T04:35:27;3.50;;;1.23;;
60704;SDS011;46545;38.014;-7.874;2023-04-15T04:37:27;1.42;;;1.17;;
60704;SDS011;46545;38.014;-7.874;2023-04-15T04:39:27;3.45;;;1.17;;
60704;SDS011;46545;38.014;-7.874;2023-04-15T04:41:28;1.83;;;1.08;;
60704;SDS011;46545;38.014;-7.874;2023-04-15T04:43:29;3.58;;;1.05;;
60704;SDS011;46545;38.014;-7.874;2023-04-15T04:45:29;4.43;;;1.00;;
60704;SDS011;46545;38.014;-7.874;2023-04-15T04:47:30;2.67;;;1.10;;
60704;SDS011;46545;38.014;-7.874;2023-04-15T04:49:30;2.17;;;1.35;;
60704;SDS011;46545;38.014;-7.874;2023-04-15T04:51:31;1.10;;;0.98;;
60704;SDS011;46545;38.014;-7.874;2023-04-15T04:53:31;1.17;;;1.08;;
60704;SDS011;46545;38.014;-7.874;2023-04-15T04:55:32;4.57;;;1.20;;
60704;SDS011;46545;38.014;-7.874;2023-04-15T04:57:33;1.73;;;1.00;;
60704;SDS011;46545;38.014;-7.874;2023-04-15T04:59:35;2.60;;;1.02;;
60704;SDS011;46545;38.014;-7.874;2023-04-15T05:01:35;4.47;;;0.73;;
60704;SDS011;46545;38.014;-7.874;2023-04-15T05:03:36;2.05;;;0.88;;
60704;SDS011;46545;38.014;-7.874;2023-04-15T05:05:37;1.77;;;0.85;;
60704;SDS011;46545;38.014;-7.874;2023-04-15T05:07:40;1.90;;;0.70;;
60704;SDS011;46545;38.014;-7.874;2023-04-15T05:09:40;3.42;;;1.10;;
60704;SDS011;46545;38.014;-7.874;2023-04-15T05:11:41;3.30;;;0.82;;
60704;SDS011;46545;38.014;-7.874;2023-04-15T05:13:41;3.58;;;1.00;;
60704;SDS011;46545;38.014;-7.874;2023-04-15T05:15:41;3.40;;;0.95;;
60704;SDS011;46545;38.014;-7.874;2023-04-15T05:17:42;2.53;;;1.20;;
60704;SDS011;46545;38.014;-7.874;2023-04-15T05:19:43;1.70;;;0.70;;
60704;SDS011;46545;38.014;-7.874;2023-04-15T05:21:44;6.10;;;1.00;;
60704;SDS011;46545;38.014;-7.874;2023-04-15T05:23:44;3.50;;;0.95;;
60704;SDS011;46545;38.014;-7.874;2023-04-15T05:25:45;3.70;;;1.85;;
60704;SDS011;46545;38.014;-7.874;2023-04-15T05:27:45;2.80;;;0.80;;
60704;SDS011;46545;38.014;-7.874;2023-04-15T05:29:46;2.50;;;1.00;;
60704;SDS011;46545;38.014;-7.874;2023-04-15T05:31:46;3.78;;;1.13;;
60704;SDS011;46545;38.014;-7.874;2023-04-15T05:33:47;3.15;;;0.93;;
60704;SDS011;46545;38.014;-7.874;2023-04-15T05:35:47;7.43;;;1.83;;
60704;SDS011;46545;38.014;-7.874;2023-04-15T05:37:48;2.58;;;1.45;;
60704;SDS011;46545;38.014;-7.874;2023-04-15T05:39:48;5.95;;;2.20;;
60704;SDS011;46545;38.014;-7.874;2023-04-15T05:41:48;4.80;;;2.28;;
60704;SDS011;46545;38.014;-7.874;2023-04-15T05:43:49;8.05;;;3.25;;
60704;SDS011;46545;38.014;-7.874;2023-04-15T05:45:49;9.27;;;4.30;;
60704;SDS011;46545;38.014;-7.874;2023-04-15T05:47:50;10.00;;;3.45;;
60704;SDS011;46545;38.014;-7.874;2023-04-15T05:49:53;8.00;;;3.07;;
60704;SDS011;46545;38.014;-7.874;2023-04-15T05:51:54;6.18;;;2.58;;
60704;SDS011;46545;38.014;-7.874;2023-04-15T05:53:55;8.30;;;3.00;;
60704;SDS011;46545;38.014;-7.874;2023-04-15T05:55:55;9.13;;;2.80;;
60704;SDS011;46545;38.014;-7.874;2023-04-15T05:57:56;7.00;;;2.55;;
60704;SDS011;46545;38.014;-7.874;2023-04-15T05:59:56;6.20;;;2.72;;
60704;SDS011;46545;38.014;-7.874;2023-04-15T06:01:57;7.75;;;2.47;;
60704;SDS011;46545;38.014;-7.874;2023-04-15T06:03:57;6.63;;;2.10;;
60704;SDS011;46545;38.014;-7.874;2023-04-15T06:05:58;9.93;;;2.13;;
60704;SDS011;46545;38.014;-7.874;2023-04-15T06:07:58;5.85;;;1.88;;
60704;SDS011;46545;38.014;-7.874;2023-04-15T06:09:58;3.70;;;1.90;;
60704;SDS011;46545;38.014;-7.874;2023-04-15T06:11:59;6.68;;;1.88;;
60704;SDS011;46545;38.014;-7.874;2023-04-15T06:14:00;6.68;;;2.60;;
60704;SDS011;46545;38.014;-7.874;2023-04-15T06:16:01;4.38;;;1.95;;
60704;SDS011;46545;38.014;-7.874;2023-04-15T06:18:01;4.50;;;2.22;;
60704;SDS011;46545;38.014;-7.874;2023-04-15T06:20:02;6.40;;;2.55;;
60704;SDS011;46545;38.014;-7.874;2023-04-15T06:22:03;3.45;;;1.70;;
60704;SDS011;46545;38.014;-7.874;2023-04-15T06:24:03;7.32;;;2.03;;
60704;SDS011;46545;38.014;-7.874;2023-04-15T06:26:04;6.43;;;1.58;;
60704;SDS011;46545;38.014;-7.874;2023-04-15T06:28:04;7.80;;;2.58;;
60704;SDS011;46545;38.014;-7.874;2023-04-15T06:30:05;7.22;;;2.08;;
60704;SDS011;46545;38.014;-7.874;2023-04-15T06:32:05;3.40;;;1.45;;
60704;SDS011;46545;38.014;-7.874;2023-04-15T06:34:06;4.43;;;1.50;;
60704;SDS011;46545;38.014;-7.874;2023-04-15T06:36:06;5.55;;;1.60;;
60704;SDS011;46545;38.014;-7.874;2023-04-15T06:38:07;4.82;;;1.67;;
60704;SDS011;46545;38.014;-7.874;2023-04-15T06:40:07;3.67;;;1.63;;
60704;SDS011;46545;38.014;-7.874;2023-04-15T06:42:09;4.25;;;1.65;;
60704;SDS011;46545;38.014;-7.874;2023-04-15T06:44:10;9.48;;;1.80;;
60704;SDS011;46545;38.014;-7.874;2023-04-15T06:46:11;5.60;;;1.90;;
60704;SDS011;46545;38.014;-7.874;2023-04-15T06:48:11;5.15;;;1.92;;
60704;SDS011;46545;38.014;-7.874;2023-04-15T06:50:12;4.38;;;1.52;;
60704;SDS011;46545;38.014;-7.874;2023-04-15T06:52:12;10.68;;;2.25;;
60704;SDS011;46545;38.014;-7.874;2023-04-15T06:54:13;7.65;;;2.55;;
60704;SDS011;46545;38.014;-7.874;2023-04-15T06:56:14;5.85;;;2.65;;
60704;SDS011;46545;38.014;-7.874;2023-04-15T06:58:14;5.07;;;2.50;;
60704;SDS011;46545;38.014;-7.874;2023-04-15T07:00:15;4.68;;;2.55;;
60704;SDS011;46545;38.014;-7.874;2023-04-15T07:02:16;7.15;;;3.08;;
60704;SDS011;46545;38.014;-7.874;2023-04-15T07:04:17;7.25;;;3.05;;
60704;SDS011;46545;38.014;-7.874;2023-04-15T07:06:17;5.75;;;2.42;;
60704;SDS011;46545;38.014;-7.874;2023-04-15T07:08:19;8.48;;;3.08;;
60704;SDS011;46545;38.014;-7.874;2023-04-15T07:10:19;5.93;;;3.25;;
60704;SDS011;46545;38.014;-7.874;2023-04-15T07:12:20;4.47;;;3.00;;
60704;SDS011;46545;38.014;-7.874;2023-04-15T07:14:20;8.60;;;3.72;;
60704;SDS011;46545;38.014;-7.874;2023-04-15T07:16:21;4.88;;;3.05;;
60704;SDS011;46545;38.014;-7.874;2023-04-15T07:18:21;5.40;;;3.25;;
60704;SDS011;46545;38.014;-7.874;2023-04-15T07:20:22;4.85;;;3.00;;
60704;SDS011;46545;38.014;-7.874;2023-04-15T07:22:22;6.03;;;3.15;;
60704;SDS011;46545;38.014;-7.874;2023-04-15T07:24:23;7.13;;;3.08;;
60704;SDS011;46545;38.014;-7.874;2023-04-15T07:26:25;7.13;;;2.83;;
60704;SDS011;46545;38.014;-7.874;2023-04-15T07:28:26;4.55;;;3.17;;
60704;SDS011;46545;38.014;-7.874;2023-04-15T07:30:26;4.72;;;2.60;;
60704;SDS011;46545;38.014;-7.874;2023-04-15T07:32:28;4.30;;;2.60;;
60704;SDS011;46545;38.014;-7.874;2023-04-15T07:34:28;2.42;;;1.88;;
60704;SDS011;46545;38.014;-7.874;2023-04-15T07:36:28;2.85;;;1.90;;
60704;SDS011;46545;38.014;-7.874;2023-04-15T07:38:29;4.13;;;1.50;;
60704;SDS011;46545;38.014;-7.874;2023-04-15T07:40:29;1.30;;;0.90;;
60704;SDS011;46545;38.014;-7.874;2023-04-15T07:42:30;1.58;;;0.75;;
60704;SDS011;46545;38.014;-7.874;2023-04-15T07:44:30;1.13;;;0.47;;
60704;SDS011;46545;38.014;-7.874;2023-04-15T07:46:31;0.30;;;0.30;;
60704;SDS011;46545;38.014;-7.874;2023-04-15T07:48:31;0.95;;;0.45;;
60704;SDS011;46545;38.014;-7.874;2023-04-15T07:50:32;0.28;;;0.20;;
60704;SDS011;46545;38.014;-7.874;2023-04-15T07:52:32;0.47;;;0.30;;
60704;SDS011;46545;38.014;-7.874;2023-04-15T07:54:38;0.40;;;0.40;;
60704;SDS011;46545;38.014;-7.874;2023-04-15T07:56:39;1.10;;;0.50;;
60704;SDS011;46545;38.014;-7.874;2023-04-15T07:58:39;1.13;;;0.30;;
60704;SDS011;46545;38.014;-7.874;2023-04-15T08:00:40;0.40;;;0.40;;
60704;SDS011;46545;38.014;-7.874;2023-04-15T08:02:43;0.50;;;0.40;;
60704;SDS011;46545;38.014;-7.874;2023-04-15T08:04:45;5.68;;;0.47;;
60704;SDS011;46545;38.014;-7.874;2023-04-15T08:06:46;1.45;;;0.20;;
60704;SDS011;46545;38.014;-7.874;2023-04-15T08:08:49;0.20;;;0.20;;
60704;SDS011;46545;38.014;-7.874;2023-04-15T08:10:49;0.30;;;0.30;;
60704;SDS011;46545;38.014;-7.874;2023-04-15T08:12:50;0.80;;;0.38;;
60704;SDS011;46545;38.014;-7.874;2023-04-15T08:14:53;0.95;;;0.30;;
60704;SDS011;46545;38.014;-7.874;2023-04-15T08:16:54;1.65;;;0.35;;
60704;SDS011;46545;38.014;-7.874;2023-04-15T08:18:55;1.00;;;0.47;;
60704;SDS011;46545;38.014;-7.874;2023-04-15T08:20:56;1.65;;;0.65;;
60704;SDS011;46545;38.014;-7.874;2023-04-15T08:22:56;0.43;;;0.25;;
60704;SDS011;46545;38.014;-7.874;2023-04-15T08:24:57;1.30;;;0.20;;
60704;SDS011;46545;38.014;-7.874;2023-04-15T08:26:58;1.08;;;0.40;;
60704;SDS011;46545;38.014;-7.874;2023-04-15T08:29:03;1.20;;;0.30;;
60704;SDS011;46545;38.014;-7.874;2023-04-15T08:31:03;2.20;;;0.45;;
60704;SDS011;46545;38.014;-7.874;2023-04-15T08:33:04;0.82;;;0.30;;
60704;SDS011;46545;38.014;-7.874;2023-04-15T08:35:04;0.70;;;0.25;;
60704;SDS011;46545;38.014;-7.874;2023-04-15T08:37:05;0.55;;;0.30;;
60704;SDS011;46545;38.014;-7.874;2023-04-15T08:39:06;1.60;;;0.30;;
60704;SDS011;46545;38.014;-7.874;2023-04-15T08:41:09;0.35;;;0.30;;
60704;SDS011;46545;38.014;-7.874;2023-04-15T08:43:14;1.95;;;0.50;;
60704;SDS011;46545;38.014;-7.874;2023-04-15T08:45:14;1.15;;;0.40;;
60704;SDS011;46545;38.014;-7.874;2023-04-15T08:47:16;1.50;;;0.30;;
60704;SDS011;46545;38.014;-7.874;2023-04-15T08:49:17;1.33;;;0.20;;
60704;SDS011;46545;38.014;-7.874;2023-04-15T08:51:18;0.52;;;0.20;;
60704;SDS011;46545;38.014;-7.874;2023-04-15T08:53:18;1.17;;;0.20;;
60704;SDS011;46545;38.014;-7.874;2023-04-15T08:55:19;0.35;;;0.20;;
60704;SDS011;46545;38.014;-7.874;2023-04-15T08:57:20;0.30;;;0.28;;
60704;SDS011;46545;38.014;-7.874;2023-04-15T08:59:21;1.20;;;0.30;;
60704;SDS011;46545;38.014;-7.874;2023-04-15T09:01:21;2.28;;;0.40;;
60704;SDS011;46545;38.014;-7.874;2023-04-15T09:03:22;2.03;;;0.30;;
60704;SDS011;46545;38.014;-7.874;2023-04-15T09:05:23;0.80;;;0.30;;
60704;SDS011;46545;38.014;-7.874;2023-04-15T09:07:24;2.78;;;0.40;;
60704;SDS011;46545;38.014;-7.874;2023-04-15T09:09:25;1.38;;;0.50;;
60704;SDS011;46545;38.014;-7.874;2023-04-15T09:11:26;0.40;;;0.20;;
60704;SDS011;46545;38.014;-7.874;2023-04-15T09:13:30;0.63;;;0.30;;
60704;SDS011;46545;38.014;-7.874;2023-04-15T09:15:30;0.93;;;0.22;;
60704;SDS011;46545;38.014;-7.874;2023-04-15T09:17:32;1.67;;;0.40;;
60704;SDS011;46545;38.014;-7.874;2023-04-15T09:19:33;1.13;;;0.40;;
60704;SDS011;46545;38.014;-7.874;2023-04-15T09:21:34;0.65;;;0.40;;
60704;SDS011;46545;38.014;-7.874;2023-04-15T09:23:34;0.73;;;0.40;;
60704;SDS011;46545;38.014;-7.874;2023-04-15T09:25:35;0.93;;;0.40;;
60704;SDS011;46545;38.014;-7.874;2023-04-15T09:27:35;0.50;;;0.38;;
60704;SDS011;46545;38.014;-7.874;2023-04-15T09:29:36;4.00;;;1.27;;
60704;SDS011;46545;38.014;-7.874;2023-04-15T09:31:37;1.38;;;0.43;;
60704;SDS011;46545;38.014;-7.874;2023-04-15T09:33:52;1.63;;;0.40;;
60704;SDS011;46545;38.014;-7.874;2023-04-15T09:35:57;2.13;;;0.30;;
60704;SDS011;46545;38.014;-7.874;2023-04-15T09:38:16;0.50;;;0.30;;
60704;SDS011;46545;38.014;-7.874;2023-04-15T09:42:35;0.93;;;0.40;;
60704;SDS011;46545;38.014;-7.874;2023-04-15T09:44:36;0.98;;;0.47;;
60704;SDS011;46545;38.014;-7.874;2023-04-15T09:46:43;3.85;;;0.60;;
60704;SDS011;46545;38.014;-7.874;2023-04-15T09:48:44;1.20;;;0.35;;
60704;SDS011;46545;38.014;-7.874;2023-04-15T09:50:45;3.20;;;0.55;;
60704;SDS011;46545;38.014;-7.874;2023-04-15T09:52:46;3.55;;;0.50;;
60704;SDS011;46545;38.014;-7.874;2023-04-15T09:54:46;2.58;;;0.40;;
60704;SDS011;46545;38.014;-7.874;2023-04-15T09:56:47;0.90;;;0.28;;
60704;SDS011;46545;38.014;-7.874;2023-04-15T09:58:54;4.63;;;0.95;;
60704;SDS011;46545;38.014;-7.874;2023-04-15T10:00:56;2.10;;;0.45;;
60704;SDS011;46545;38.014;-7.874;2023-04-15T10:02:56;4.70;;;0.77;;
60704;SDS011;46545;38.014;-7.874;2023-04-15T10:04:57;2.60;;;0.50;;
60704;SDS011;46545;38.014;-7.874;2023-04-15T10:06:58;1.38;;;0.60;;
60704;SDS011;46545;38.014;-7.874;2023-04-15T10:08:59;1.85;;;0.50;;
60704;SDS011;46545;38.014;-7.874;2023-04-15T10:11:03;3.05;;;0.50;;
60704;SDS011;46545;38.014;-7.874;2023-04-15T10:13:04;2.20;;;0.70;;
60704;SDS011;46545;38.014;-7.874;2023-04-15T10:15:05;4.00;;;0.70;;
60704;SDS011;46545;38.014;-7.874;2023-04-15T10:17:10;2.97;;;0.70;;
60704;SDS011;46545;38.014;-7.874;2023-04-15T10:19:11;8.20;;;0.90;;
60704;SDS011;46545;38.014;-7.874;2023-04-15T10:21:12;1.50;;;0.60;;
60704;SDS011;46545;38.014;-7.874;2023-04-15T10:23:15;3.25;;;0.70;;
60704;SDS011;46545;38.014;-7.874;2023-04-15T10:25:17;1.02;;;0.40;;
60704;SDS011;46545;38.014;-7.874;2023-04-15T10:27:18;2.38;;;0.55;;
60704;SDS011;46545;38.014;-7.874;2023-04-15T10:29:19;4.80;;;1.08;;
60704;SDS011;46545;38.014;-7.874;2023-04-15T10:31:20;6.07;;;0.80;;
60704;SDS011;46545;38.014;-7.874;2023-04-15T10:33:22;2.28;;;0.55;;
60704;SDS011;46545;38.014;-7.874;2023-04-15T10:35:23;1.27;;;0.50;;
60704;SDS011;46545;38.014;-7.874;2023-04-15T10:37:36;0.90;;;0.80;;
60704;SDS011;46545;38.014;-7.874;2023-04-15T10:41:37;1.27;;;0.57;;
60704;SDS011;46545;38.014;-7.874;2023-04-15T10:43:38;3.42;;;1.10;;
60704;SDS011;46545;38.014;-7.874;2023-04-15T10:45:38;5.90;;;0.60;;
60704;SDS011;46545;38.014;-7.874;2023-04-15T10:47:44;11.73;;;1.70;;
60704;SDS011;46545;38.014;-7.874;2023-04-15T10:49:45;1.48;;;0.70;;
60704;SDS011;46545;38.014;-7.874;2023-04-15T10:51:50;6.43;;;1.00;;
60704;SDS011;46545;38.014;-7.874;2023-04-15T10:53:54;4.72;;;1.17;;
60704;SDS011;46545;38.014;-7.874;2023-04-15T10:55:56;3.67;;;0.60;;
60704;SDS011;46545;38.014;-7.874;2023-04-15T10:58:00;2.47;;;0.70;;
60704;SDS011;46545;38.014;-7.874;2023-04-15T11:00:16;3.95;;;0.70;;
60704;SDS011;46545;38.014;-7.874;2023-04-15T11:02:17;1.33;;;0.80;;
60704;SDS011;46545;38.014;-7.874;2023-04-15T11:06:45;5.45;;;1.17;;
60704;SDS011;46545;38.014;-7.874;2023-04-15T11:08:53;4.07;;;0.60;;
60704;SDS011;46545;38.014;-7.874;2023-04-15T11:10:53;2.03;;;0.57;;
60704;SDS011;46545;38.014;-7.874;2023-04-15T11:12:58;3.53;;;0.85;;
60704;SDS011;46545;38.014;-7.874;2023-04-15T11:14:58;3.67;;;0.52;;
60704;SDS011;46545;38.014;-7.874;2023-04-15T11:16:59;4.00;;;0.85;;
60704;SDS011;46545;38.014;-7.874;2023-04-15T11:18:59;1.85;;;0.80;;
60704;SDS011;46545;38.014;-7.874;2023-04-15T11:21:01;5.18;;;0.98;;
60704;SDS011;46545;38.014;-7.874;2023-04-15T11:23:02;4.45;;;0.80;;
60704;SDS011;46545;38.014;-7.874;2023-04-15T11:25:03;3.25;;;1.33;;
60704;SDS011;46545;38.014;-7.874;2023-04-15T11:27:04;2.72;;;0.60;;
60704;SDS011;46545;38.014;-7.874;2023-04-15T11:29:05;7.30;;;1.05;;
60704;SDS011;46545;38.014;-7.874;2023-04-15T11:31:25;3.90;;;2.05;;
60704;SDS011;46545;38.014;-7.874;2023-04-15T11:33:26;5.78;;;0.68;;
60704;SDS011;46545;38.014;-7.874;2023-04-15T11:35:27;5.30;;;0.95;;
60704;SDS011;46545;38.014;-7.874;2023-04-15T11:37:28;2.70;;;0.60;;
60704;SDS011;46545;38.014;-7.874;2023-04-15T11:39:29;3.42;;;0.82;;
60704;SDS011;46545;38.014;-7.874;2023-04-15T11:41:29;4.88;;;1.23;;
60704;SDS011;46545;38.014;-7.874;2023-04-15T11:43:30;6.45;;;0.85;;
60704;SDS011;46545;38.014;-7.874;2023-04-15T11:45:31;1.70;;;0.60;;
60704;SDS011;46545;38.014;-7.874;2023-04-15T11:47:31;3.90;;;0.90;;
60704;SDS011;46545;38.014;-7.874;2023-04-15T11:49:32;4.90;;;1.38;;
60704;SDS011;46545;38.014;-7.874;2023-04-15T11:51:34;4.35;;;0.60;;
60704;SDS011;46545;38.014;-7.874;2023-04-15T11:53:44;2.63;;;1.15;;
60704;SDS011;46545;38.014;-7.874;2023-04-15T11:55:49;6.68;;;1.25;;
60704;SDS011;46545;38.014;-7.874;2023-04-15T11:57:52;2.25;;;0.63;;
60704;SDS011;46545;38.014;-7.874;2023-04-15T12:00:04;3.20;;;1.00;;
60704;SDS011;46545;38.014;-7.874;2023-04-15T12:02:12;5.38;;;1.00;;
60704;SDS011;46545;38.014;-7.874;2023-04-15T12:04:14;4.57;;;0.80;;
60704;SDS011;46545;38.014;-7.874;2023-04-15T12:06:18;2.53;;;0.77;;
60704;SDS011;46545;38.014;-7.874;2023-04-15T12:08:19;4.82;;;0.60;;